createdAt,value
2019-05-26T00:01:01.687Z,10.50
2019-05-26T00:03:30.338Z,10.60
2019-05-26T00:05:59.049Z,10.50
2019-05-26T00:08:27.643Z,10.60
2019-05-26T00:10:56.235Z,10.70
2019-05-26T00:13:24.862Z,10.70
2019-05-26T00:15:53.570Z,10.70
2019-05-26T00:18:22.121Z,10.70
2019-05-26T00:20:50.722Z,10.70
2019-05-26T00:23:19.393Z,10.70
2019-05-26T00:25:48.005Z,10.80
2019-05-26T00:28:16.562Z,10.80
2019-05-26T00:30:45.195Z,10.80
2019-05-26T00:33:13.755Z,10.90
2019-05-26T00:35:42.349Z,10.90
2019-05-26T00:38:10.988Z,10.90
2019-05-26T00:40:39.675Z,10.90
2019-05-26T00:43:08.388Z,10.90
2019-05-26T00:45:37.038Z,10.90
2019-05-26T00:48:05.874Z,11.10
2019-05-26T00:50:34.494Z,11.10
2019-05-26T00:53:03.218Z,11.10
2019-05-26T00:55:31.924Z,11.10
2019-05-26T00:58:00.631Z,11.10
2019-05-26T01:00:42.870Z,11.10
2019-05-26T01:03:12.534Z,11.10
2019-05-26T01:05:41.636Z,11.10
2019-05-26T01:08:10.529Z,11.10
2019-05-26T01:10:39.273Z,11.10
2019-05-26T01:13:07.935Z,11.10
2019-05-26T01:15:36.660Z,11.20
2019-05-26T01:18:06.329Z,11.20
2019-05-26T01:20:35.115Z,11.20
2019-05-26T01:23:04.249Z,11.20
2019-05-26T01:25:32.900Z,11.10
2019-05-26T01:28:01.575Z,11.20
2019-05-26T01:30:37.837Z,11.10
2019-05-26T01:33:07.191Z,11.10
2019-05-26T01:35:39.607Z,11.10
2019-05-26T01:38:22.487Z,11.20
2019-05-26T01:40:44.287Z,11.30
2019-05-26T01:43:13.413Z,11.30
2019-05-26T01:45:42.095Z,11.40
2019-05-26T01:48:10.951Z,11.40
2019-05-26T01:50:39.614Z,11.30
2019-05-26T01:53:08.615Z,11.30
2019-05-26T01:55:37.319Z,11.30
2019-05-26T01:58:06.195Z,11.30
2019-05-26T02:00:35.462Z,11.30
2019-05-26T02:03:04.566Z,11.30
2019-05-26T02:05:33.361Z,11.20
2019-05-26T02:08:02.107Z,11.20
2019-05-26T02:10:30.885Z,11.20
2019-05-26T02:12:59.474Z,11.20
2019-05-26T02:15:30.198Z,11.20
2019-05-26T02:17:58.807Z,11.30
2019-05-26T02:20:27.644Z,11.40
2019-05-26T02:22:56.313Z,11.40
2019-05-26T02:25:26.368Z,11.40
2019-05-26T02:27:54.948Z,11.40
2019-05-26T02:30:23.993Z,11.30
2019-05-26T02:32:52.724Z,11.30
2019-05-26T02:35:21.675Z,11.40
2019-05-26T02:37:50.364Z,11.40
2019-05-26T02:40:19.574Z,11.50
2019-05-26T02:42:48.230Z,11.50
2019-05-26T02:45:18.179Z,11.40
2019-05-26T02:47:47.017Z,11.50
2019-05-26T02:50:17.004Z,11.60
2019-05-26T02:52:45.684Z,11.50
2019-05-26T02:55:17.145Z,11.60
2019-05-26T02:57:45.802Z,11.40
2019-05-26T03:00:16.029Z,11.50
2019-05-26T03:02:45.233Z,11.50
2019-05-26T03:05:16.334Z,11.50
2019-05-26T03:07:45.370Z,11.60
2019-05-26T03:10:14.969Z,11.60
2019-05-26T03:12:44.359Z,11.60
2019-05-26T03:15:15.572Z,11.60
2019-05-26T03:17:45.280Z,11.70
2019-05-26T03:20:14.535Z,11.60
2019-05-26T03:22:43.399Z,11.70
2019-05-26T03:25:13.254Z,11.70
2019-05-26T03:27:41.869Z,11.80
2019-05-26T03:30:10.876Z,11.70
2019-05-26T03:32:39.627Z,11.70
2019-05-26T03:35:11.465Z,11.60
2019-05-26T03:37:40.041Z,11.70
2019-05-26T03:40:10.205Z,11.90
2019-05-26T03:42:38.891Z,11.90
2019-05-26T03:45:08.912Z,11.80
2019-05-26T03:47:37.589Z,11.90
2019-05-26T03:50:07.763Z,12.00
2019-05-26T03:52:36.357Z,12.00
2019-05-26T03:55:07.397Z,12.10
2019-05-26T03:57:36.049Z,12.10
2019-05-26T04:00:08.356Z,12.10
2019-05-26T04:02:36.999Z,12.20
2019-05-26T04:05:07.039Z,12.20
2019-05-26T04:07:35.741Z,12.30
2019-05-26T04:10:07.769Z,12.40
2019-05-26T04:12:36.505Z,12.30
2019-05-26T04:15:09.613Z,12.40
2019-05-26T04:17:38.391Z,12.40
2019-05-26T04:20:08.103Z,12.40
2019-05-26T04:22:36.818Z,12.60
2019-05-26T04:25:06.293Z,12.60
2019-05-26T04:27:34.931Z,12.50
2019-05-26T04:30:05.374Z,12.40
2019-05-26T04:32:34.068Z,12.30
2019-05-26T04:35:02.670Z,12.40
2019-05-26T04:37:31.275Z,12.20
2019-05-26T04:39:59.849Z,12.40
2019-05-26T04:42:28.561Z,12.30
2019-05-26T04:44:57.178Z,12.50
2019-05-26T04:47:25.911Z,12.60
2019-05-26T04:49:54.600Z,12.80
2019-05-26T04:52:23.250Z,12.80
2019-05-26T04:54:51.843Z,12.90
2019-05-26T04:57:20.435Z,13.20
2019-05-26T04:59:49.112Z,12.90
2019-05-26T05:02:17.741Z,13.00
2019-05-26T05:04:46.342Z,13.00
2019-05-26T05:07:14.937Z,13.00
2019-05-26T05:09:43.528Z,12.90
2019-05-26T05:12:12.217Z,12.70
2019-05-26T05:14:40.946Z,12.80
2019-05-26T05:17:09.603Z,12.80
2019-05-26T05:19:38.245Z,12.80
2019-05-26T05:22:06.919Z,12.80
2019-05-26T05:24:35.524Z,13.20
2019-05-26T05:27:04.221Z,12.90
2019-05-26T05:29:32.933Z,13.00
2019-05-26T05:32:01.725Z,13.10
2019-05-26T05:34:30.382Z,13.10
2019-05-26T05:36:59.014Z,13.10
2019-05-26T05:39:27.651Z,13.00
2019-05-26T05:41:56.230Z,13.00
2019-05-26T05:44:24.897Z,13.30
2019-05-26T05:46:53.630Z,13.10
2019-05-26T05:49:22.359Z,13.40
2019-05-26T05:51:50.874Z,13.50
2019-05-26T05:54:19.605Z,13.90
2019-05-26T05:56:48.205Z,14.20
2019-05-26T05:59:16.788Z,14.50
2019-05-26T06:01:45.535Z,14.70
2019-05-26T06:04:14.159Z,14.60
2019-05-26T06:06:42.815Z,14.10
2019-05-26T06:09:11.411Z,14.20
2019-05-26T06:11:40.077Z,14.40
2019-05-26T06:14:08.738Z,14.40
2019-05-26T06:16:37.489Z,14.20
2019-05-26T06:19:06.142Z,14.60
2019-05-26T06:21:34.755Z,14.80
2019-05-26T06:24:03.375Z,14.90
2019-05-26T06:26:31.958Z,15.10
2019-05-26T06:29:00.732Z,14.60
2019-05-26T06:31:29.294Z,14.70
2019-05-26T06:33:57.899Z,15.00
2019-05-26T06:36:26.490Z,15.00
2019-05-26T06:38:55.094Z,15.30
2019-05-26T06:41:32.912Z,15.70
2019-05-26T06:43:54.347Z,15.30
2019-05-26T06:46:23.025Z,15.50
2019-05-26T06:48:51.815Z,15.40
2019-05-26T06:51:20.411Z,15.60
2019-05-26T06:53:48.984Z,15.80
2019-05-26T06:56:17.575Z,16.20
2019-05-26T06:58:46.308Z,17.90
2019-05-26T07:01:14.925Z,18.20
2019-05-26T07:03:43.623Z,18.90
2019-05-26T07:06:12.280Z,18.50
2019-05-26T07:08:40.970Z,18.60
2019-05-26T07:11:09.694Z,17.80
2019-05-26T07:13:38.279Z,17.80
2019-05-26T07:16:06.843Z,16.40
2019-05-26T07:18:35.442Z,16.00
2019-05-26T07:21:04.116Z,16.60
2019-05-26T07:23:32.911Z,17.30
2019-05-26T07:26:01.642Z,17.40
2019-05-26T07:28:30.233Z,18.50
2019-05-26T07:30:58.967Z,18.30
2019-05-26T07:33:27.645Z,19.40
2019-05-26T07:35:56.247Z,18.70
2019-05-26T07:38:24.944Z,19.00
2019-05-26T07:40:53.567Z,17.40
2019-05-26T07:43:22.152Z,17.40
2019-05-26T07:45:50.759Z,16.70
2019-05-26T07:48:19.382Z,16.50
2019-05-26T07:50:48.048Z,16.30
2019-05-26T07:53:16.740Z,16.80
2019-05-26T07:55:45.422Z,17.10
2019-05-26T07:58:13.988Z,17.70
2019-05-26T08:00:42.594Z,17.80
2019-05-26T08:03:11.355Z,18.40
2019-05-26T08:05:40.042Z,18.80
2019-05-26T08:08:13.159Z,17.90
2019-05-26T08:10:38.865Z,17.40
2019-05-26T08:13:07.659Z,17.20
2019-05-26T08:15:36.251Z,17.00
2019-05-26T08:18:05.626Z,16.80
2019-05-26T08:20:34.236Z,16.60
2019-05-26T08:23:02.862Z,16.60
2019-05-26T08:25:31.608Z,16.80
2019-05-26T08:28:00.251Z,16.60
2019-05-26T08:30:28.949Z,16.40
2019-05-26T08:32:57.531Z,16.50
2019-05-26T08:35:26.294Z,16.10
2019-05-26T08:37:54.878Z,16.40
2019-05-26T08:40:23.545Z,16.90
2019-05-26T08:42:52.875Z,17.10
2019-05-26T08:45:22.940Z,17.30
2019-05-26T08:47:52.244Z,17.00
2019-05-26T08:50:21.751Z,16.60
2019-05-26T08:52:50.398Z,16.40
2019-05-26T08:55:19.434Z,16.10
2019-05-26T08:57:48.007Z,15.90
2019-05-26T09:00:18.637Z,16.00
2019-05-26T09:02:47.401Z,15.90
2019-05-26T09:05:17.509Z,15.90
2019-05-26T09:07:46.140Z,15.70
2019-05-26T09:10:15.357Z,15.50
2019-05-26T09:12:59.327Z,15.30
2019-05-26T09:15:14.562Z,15.60
2019-05-26T09:17:43.133Z,15.60
2019-05-26T09:20:13.863Z,15.50
2019-05-26T09:22:42.553Z,15.50
2019-05-26T09:25:11.718Z,15.40
2019-05-26T09:27:40.533Z,15.70
2019-05-26T09:30:09.529Z,15.80
2019-05-26T09:32:38.240Z,15.80
2019-05-26T09:35:07.477Z,15.80
2019-05-26T09:37:37.155Z,15.80
2019-05-26T09:40:09.838Z,15.50
2019-05-26T09:42:38.465Z,15.20
2019-05-26T09:45:08.645Z,15.10
2019-05-26T09:47:37.320Z,15.10
2019-05-26T09:50:09.877Z,15.00
2019-05-26T09:52:38.662Z,15.10
2019-05-26T09:55:10.641Z,15.20
2019-05-26T09:57:39.314Z,15.30
2019-05-26T10:00:09.396Z,15.20
2019-05-26T10:02:38.173Z,15.40
2019-05-26T10:05:08.802Z,15.30
2019-05-26T10:07:37.522Z,15.30
2019-05-26T10:10:10.174Z,15.10
2019-05-26T10:12:38.820Z,15.30
2019-05-26T10:15:08.966Z,15.00
2019-05-26T10:17:37.722Z,15.30
2019-05-26T10:20:08.344Z,15.20
2019-05-26T10:22:37.087Z,14.90
2019-05-26T10:25:07.491Z,14.80
2019-05-26T10:27:36.244Z,14.70
2019-05-26T10:30:10.472Z,14.60
2019-05-26T10:32:39.105Z,14.60
2019-05-26T10:35:08.131Z,14.40
2019-05-26T10:37:36.929Z,14.40
2019-05-26T10:40:07.943Z,14.50
2019-05-26T10:42:36.542Z,14.70
2019-05-26T10:45:09.902Z,14.70
2019-05-26T10:47:38.619Z,14.80
2019-05-26T10:50:08.475Z,14.70
2019-05-26T10:52:37.235Z,14.70
2019-05-26T10:55:07.773Z,14.70
2019-05-26T10:57:36.458Z,14.70
2019-05-26T11:00:09.595Z,14.70
2019-05-26T11:02:38.396Z,14.40
2019-05-26T11:05:07.545Z,14.10
2019-05-26T11:07:36.250Z,14.10
2019-05-26T11:10:08.399Z,14.00
2019-05-26T11:12:37.089Z,14.00
2019-05-26T11:15:09.362Z,14.10
2019-05-26T11:17:38.443Z,14.10
2019-05-26T11:20:09.466Z,14.20
2019-05-26T11:22:38.169Z,14.10
2019-05-26T11:25:08.116Z,14.00
2019-05-26T11:27:36.970Z,13.90
2019-05-26T11:30:12.870Z,14.10
2019-05-26T11:32:41.611Z,14.00
2019-05-26T11:35:10.854Z,14.00
2019-05-26T11:37:39.441Z,13.50
2019-05-26T11:40:08.706Z,13.30
2019-05-26T11:42:37.376Z,13.20
2019-05-26T11:45:08.115Z,13.30
2019-05-26T11:47:36.797Z,13.30
2019-05-26T11:50:09.269Z,13.30
2019-05-26T11:52:38.013Z,13.50
2019-05-26T11:55:09.608Z,13.40
2019-05-26T11:57:38.210Z,13.30
2019-05-26T12:00:12.986Z,13.20
2019-05-26T12:02:41.861Z,13.20
2019-05-26T12:05:11.197Z,13.20
2019-05-26T12:07:39.764Z,13.10
2019-05-26T12:10:08.830Z,13.20
2019-05-26T12:12:37.614Z,13.30
2019-05-26T12:15:08.566Z,13.50
2019-05-26T12:17:37.332Z,13.40
2019-05-26T12:20:06.414Z,13.60
2019-05-26T12:22:35.123Z,14.10
2019-05-26T12:25:05.532Z,14.30
2019-05-26T12:27:34.150Z,14.10
2019-05-26T12:30:03.222Z,14.10
2019-05-26T12:32:31.873Z,14.70
2019-05-26T12:35:00.583Z,14.50
2019-05-26T12:37:29.169Z,14.40
2019-05-26T12:39:57.745Z,14.40
2019-05-26T12:42:26.435Z,14.10
2019-05-26T12:44:55.038Z,13.90
2019-05-26T12:47:23.597Z,13.90
2019-05-26T12:49:52.367Z,13.80
2019-05-26T12:52:21.035Z,13.80
2019-05-26T12:54:49.673Z,13.70
2019-05-26T12:57:18.354Z,13.60
2019-05-26T12:59:47.023Z,13.60
2019-05-26T13:02:15.912Z,13.60
2019-05-26T13:04:44.557Z,13.30
2019-05-26T13:07:13.230Z,13.40
2019-05-26T13:09:41.801Z,13.60
2019-05-26T13:12:10.433Z,13.60
2019-05-26T13:14:39.186Z,13.50
2019-05-26T13:17:07.849Z,13.40
2019-05-26T13:19:36.469Z,13.50
2019-05-26T13:22:05.232Z,13.40
2019-05-26T13:24:33.915Z,13.30
2019-05-26T13:27:02.544Z,13.30
2019-05-26T13:29:31.263Z,13.40
2019-05-26T13:31:59.858Z,13.30
2019-05-26T13:34:28.641Z,13.50
2019-05-26T13:36:57.254Z,13.40
2019-05-26T13:39:25.852Z,13.30
2019-05-26T13:41:54.480Z,13.30
2019-05-26T13:44:23.066Z,13.60
2019-05-26T13:46:51.767Z,13.50
2019-05-26T13:49:20.393Z,13.60
2019-05-26T13:51:50.467Z,13.60
2019-05-26T13:54:19.436Z,13.30
2019-05-26T13:56:48.142Z,13.20
2019-05-26T13:59:16.830Z,13.00
2019-05-26T14:01:45.466Z,13.00
2019-05-26T14:04:14.097Z,13.00
2019-05-26T14:06:42.733Z,13.20
2019-05-26T14:09:11.496Z,13.30
2019-05-26T14:11:40.250Z,13.50
2019-05-26T14:14:08.906Z,13.30
2019-05-26T14:16:38.415Z,13.20
2019-05-26T14:19:07.074Z,13.20
2019-05-26T14:21:35.668Z,13.10
2019-05-26T14:24:04.731Z,13.20
2019-05-26T14:26:33.322Z,13.20
2019-05-26T14:29:01.909Z,13.00
2019-05-26T14:31:30.717Z,12.90
2019-05-26T14:33:59.298Z,12.70
2019-05-26T14:36:28.035Z,12.60
2019-05-26T14:38:56.634Z,12.60
2019-05-26T14:41:25.295Z,12.70
2019-05-26T14:43:54.066Z,12.70
2019-05-26T14:46:22.657Z,12.90
2019-05-26T14:48:51.409Z,12.70
2019-05-26T14:51:20.010Z,12.90
2019-05-26T14:53:48.647Z,13.00
2019-05-26T14:56:17.241Z,12.80
2019-05-26T14:58:45.877Z,13.00
2019-05-26T15:01:14.640Z,12.90
2019-05-26T15:03:43.227Z,12.80
2019-05-26T15:06:11.890Z,12.90
2019-05-26T15:08:40.569Z,12.90
2019-05-26T15:11:09.139Z,12.90
2019-05-26T15:13:37.730Z,12.90
2019-05-26T15:16:10.300Z,12.70
2019-05-26T15:18:36.552Z,13.00
2019-05-26T15:21:05.418Z,12.90
2019-05-26T15:23:34.083Z,13.00
2019-05-26T15:26:05.292Z,13.10
2019-05-26T15:28:33.101Z,13.00
2019-05-26T15:31:01.751Z,12.80
2019-05-26T15:33:30.382Z,12.40
2019-05-26T15:35:58.954Z,12.40
2019-05-26T15:38:41.993Z,12.20
2019-05-26T15:40:58.022Z,12.20
2019-05-26T15:43:26.578Z,12.20
2019-05-26T15:45:55.226Z,12.20
2019-05-26T15:48:23.880Z,12.20
2019-05-26T15:50:52.514Z,12.20
2019-05-26T15:53:21.102Z,12.30
2019-05-26T15:55:49.704Z,12.20
2019-05-26T15:58:18.407Z,12.00
2019-05-26T16:00:47.170Z,12.00
2019-05-26T16:03:15.802Z,12.00
2019-05-26T16:05:44.442Z,12.10
2019-05-26T16:08:13.271Z,12.10
2019-05-26T16:10:41.838Z,12.00
2019-05-26T16:13:10.476Z,11.90
2019-05-26T16:15:39.213Z,11.80
2019-05-26T16:18:07.894Z,11.80
2019-05-26T16:20:36.525Z,11.80
2019-05-26T16:23:08.545Z,11.70
2019-05-26T16:25:35.679Z,11.60
2019-05-26T16:28:04.377Z,11.60
2019-05-26T16:30:32.946Z,11.60
2019-05-26T16:33:01.712Z,11.70
2019-05-26T16:35:30.555Z,11.60
2019-05-26T16:37:59.174Z,11.60
2019-05-26T16:40:27.778Z,11.70
2019-05-26T16:42:56.366Z,11.70
2019-05-26T16:45:24.969Z,11.70
2019-05-26T16:47:53.677Z,11.70
2019-05-26T16:50:22.310Z,11.80
2019-05-26T16:52:54.277Z,11.70
2019-05-26T16:55:21.129Z,11.80
2019-05-26T16:57:49.723Z,11.80
2019-05-26T17:00:18.543Z,11.70
2019-05-26T17:02:47.238Z,11.80
2019-05-26T17:05:15.950Z,11.70
2019-05-26T17:07:44.537Z,11.60
2019-05-26T17:10:13.455Z,11.60
2019-05-26T17:12:42.126Z,11.60
2019-05-26T17:15:10.893Z,11.60
2019-05-26T17:17:39.625Z,11.60
2019-05-26T17:20:09.194Z,11.50
2019-05-26T17:22:37.887Z,11.60
2019-05-26T17:25:07.817Z,11.60
2019-05-26T17:27:36.469Z,11.50
2019-05-26T17:30:08.349Z,11.50
2019-05-26T17:32:37.251Z,11.50
2019-05-26T17:35:07.013Z,11.40
2019-05-26T17:37:35.726Z,11.50
2019-05-26T17:40:06.130Z,11.50
2019-05-26T17:42:35.090Z,11.50
2019-05-26T17:45:07.791Z,11.50
2019-05-26T17:47:36.419Z,11.40
2019-05-26T17:50:08.091Z,11.50
2019-05-26T17:52:37.124Z,11.50
2019-05-26T17:55:09.873Z,11.30
2019-05-26T17:57:38.543Z,11.30
2019-05-26T18:00:09.948Z,11.30
2019-05-26T18:02:39.085Z,11.30
2019-05-26T18:05:07.960Z,11.10
2019-05-26T18:07:36.633Z,11.00
2019-05-26T18:10:06.957Z,10.90
2019-05-26T18:12:35.639Z,10.80
2019-05-26T18:15:07.741Z,10.90
2019-05-26T18:17:46.264Z,10.90
2019-05-26T18:20:07.678Z,10.70
2019-05-26T18:22:36.398Z,10.70
2019-05-26T18:25:07.340Z,10.70
2019-05-26T18:27:36.120Z,10.60
2019-05-26T18:30:06.772Z,10.50
2019-05-26T18:32:35.451Z,10.50
2019-05-26T18:35:06.876Z,10.50
2019-05-26T18:37:35.523Z,10.50
2019-05-26T18:40:06.342Z,10.50
2019-05-26T18:42:34.987Z,10.50
2019-05-26T18:45:05.426Z,10.50
2019-05-26T18:47:34.032Z,10.60
2019-05-26T18:50:02.615Z,10.60
2019-05-26T18:52:31.385Z,10.60
2019-05-26T18:55:00.435Z,10.60
2019-05-26T18:57:29.673Z,10.60
2019-05-26T18:59:58.275Z,10.60
2019-05-26T19:02:26.892Z,10.50
2019-05-26T19:04:55.533Z,10.50
2019-05-26T19:07:24.160Z,10.50
2019-05-26T19:09:52.893Z,10.50
2019-05-26T19:12:21.461Z,10.50
2019-05-26T19:14:50.066Z,10.50
2019-05-26T19:17:19.003Z,10.40
2019-05-26T19:19:47.657Z,10.40
2019-05-26T19:22:16.253Z,10.30
2019-05-26T19:24:44.934Z,10.30
2019-05-26T19:27:13.638Z,10.30
2019-05-26T19:29:42.235Z,10.40
2019-05-26T19:32:10.902Z,10.40
2019-05-26T19:34:39.573Z,10.40
2019-05-26T19:37:08.368Z,10.40
2019-05-26T19:39:37.737Z,10.40
2019-05-26T19:42:06.574Z,10.40
2019-05-26T19:44:35.218Z,10.40
2019-05-26T19:47:03.875Z,10.40
2019-05-26T19:49:32.494Z,10.40
2019-05-26T19:52:01.057Z,10.40
2019-05-26T19:54:29.657Z,10.50
2019-05-26T19:56:58.250Z,10.40
2019-05-26T19:59:26.833Z,10.50
2019-05-26T20:01:55.548Z,10.50
2019-05-26T20:04:24.415Z,10.50
2019-05-26T20:06:53.063Z,10.60
2019-05-26T20:09:21.778Z,10.50
2019-05-26T20:11:50.394Z,10.50
2019-05-26T20:14:19.187Z,10.40
2019-05-26T20:16:47.823Z,10.50
2019-05-26T20:19:16.509Z,10.50
2019-05-26T20:21:45.210Z,10.50
2019-05-26T20:24:13.825Z,10.60
2019-05-26T20:26:42.513Z,10.50
2019-05-26T20:29:11.050Z,10.50
2019-05-26T20:31:39.682Z,10.50
2019-05-26T20:34:08.361Z,10.50
2019-05-26T20:36:37.000Z,10.60
2019-05-26T20:39:08.447Z,10.60
2019-05-26T20:41:37.032Z,10.60
2019-05-26T20:44:05.762Z,10.60
2019-05-26T20:46:34.386Z,10.60
2019-05-26T20:49:03.120Z,10.50
2019-05-26T20:51:31.706Z,10.40
2019-05-26T20:54:00.451Z,10.40
2019-05-26T20:56:29.045Z,10.40
2019-05-26T20:58:57.644Z,10.40
2019-05-26T21:01:26.301Z,10.40
2019-05-26T21:03:54.970Z,10.30
2019-05-26T21:06:23.753Z,10.30
2019-05-26T21:08:52.306Z,10.30
2019-05-26T21:11:20.922Z,10.20
2019-05-26T21:13:49.529Z,10.20
2019-05-26T21:16:18.155Z,10.20
2019-05-26T21:18:46.746Z,10.10
2019-05-26T21:21:15.354Z,10.10
2019-05-26T21:23:44.013Z,10.10
2019-05-26T21:26:12.611Z,10.00
2019-05-26T21:28:41.379Z,10.00
2019-05-26T21:31:09.942Z,10.00
2019-05-26T21:33:38.614Z,9.90
2019-05-26T21:36:07.398Z,10.00
2019-05-26T21:38:36.109Z,10.00
2019-05-26T21:41:04.865Z,9.90
2019-05-26T21:43:33.488Z,9.90
2019-05-26T21:46:02.085Z,9.90
2019-05-26T21:48:32.781Z,9.90
2019-05-26T21:51:01.045Z,9.90
2019-05-26T21:53:29.650Z,9.90
2019-05-26T21:55:58.205Z,9.90
2019-05-26T21:58:26.797Z,9.80
2019-05-26T22:00:55.533Z,9.80
2019-05-26T22:03:24.385Z,9.80
2019-05-26T22:05:52.989Z,9.80
2019-05-26T22:08:21.614Z,9.80
2019-05-26T22:10:50.326Z,9.80
2019-05-26T22:13:19.062Z,9.80
2019-05-26T22:15:47.770Z,9.80
2019-05-26T22:18:16.472Z,9.80
2019-05-26T22:20:45.349Z,9.80
2019-05-26T22:23:14.050Z,9.80
2019-05-26T22:25:42.761Z,9.70
2019-05-26T22:28:11.515Z,9.70
2019-05-26T22:30:40.202Z,9.70
2019-05-26T22:33:08.907Z,9.80
2019-05-26T22:35:37.686Z,9.80
2019-05-26T22:38:06.430Z,9.80
2019-05-26T22:40:35.137Z,9.70
2019-05-26T22:43:03.946Z,9.70
2019-05-26T22:45:32.654Z,9.70
2019-05-26T22:48:01.358Z,9.70
2019-05-26T22:50:30.065Z,9.60
2019-05-26T22:52:58.777Z,9.60
2019-05-26T22:55:27.534Z,9.60
2019-05-26T22:57:56.250Z,9.60
2019-05-26T23:00:25.349Z,9.60
2019-05-26T23:02:54.265Z,9.60
2019-05-26T23:05:23.047Z,9.60
2019-05-26T23:07:51.765Z,9.60
2019-05-26T23:10:20.471Z,9.50
2019-05-26T23:12:49.205Z,9.60
2019-05-26T23:15:18.238Z,9.60
2019-05-26T23:17:46.909Z,9.60
2019-05-26T23:20:15.922Z,9.60
2019-05-26T23:22:44.629Z,9.50
2019-05-26T23:25:13.651Z,9.50
2019-05-26T23:27:42.210Z,9.40
2019-05-26T23:30:11.498Z,9.40
2019-05-26T23:32:40.058Z,9.40
2019-05-26T23:35:09.007Z,9.40
2019-05-26T23:37:37.676Z,9.30
2019-05-26T23:40:08.298Z,9.30
2019-05-26T23:42:36.960Z,9.40
2019-05-26T23:45:06.691Z,9.40
2019-05-26T23:47:35.322Z,9.30
2019-05-26T23:50:08.313Z,9.30
2019-05-26T23:52:37.061Z,9.30
2019-05-26T23:55:09.948Z,9.30
2019-05-26T23:57:37.729Z,9.30
